createdAt,value
2022-10-25T00:01:55.903Z,12.90
2022-10-25T00:04:22.759Z,12.90
2022-10-25T00:06:49.340Z,12.90
2022-10-25T00:09:15.867Z,12.90
2022-10-25T00:11:43.346Z,12.84
2022-10-25T00:14:09.966Z,12.80
2022-10-25T00:16:38.260Z,12.80
2022-10-25T00:19:06.000Z,12.80
2022-10-25T00:21:32.683Z,12.70
2022-10-25T00:23:59.230Z,12.70
2022-10-25T00:26:25.799Z,12.70
2022-10-25T00:28:55.231Z,12.60
2022-10-25T00:31:23.316Z,12.60
2022-10-25T00:33:50.200Z,12.50
2022-10-25T00:36:21.320Z,12.50
2022-10-25T00:38:49.046Z,12.50
2022-10-25T00:41:22.265Z,12.50
2022-10-25T00:43:55.395Z,12.40
2022-10-25T00:46:23.418Z,12.40
2022-10-25T00:49:00.098Z,12.40
2022-10-25T00:51:39.066Z,12.36
2022-10-25T00:54:08.636Z,12.30
2022-10-25T00:56:40.757Z,12.30
2022-10-25T00:59:12.717Z,12.30
2022-10-25T01:01:39.599Z,12.30
2022-10-25T01:04:10.985Z,12.22
2022-10-25T01:06:41.808Z,12.20
2022-10-25T01:09:18.420Z,12.20
2022-10-25T01:11:45.128Z,12.14
2022-10-25T01:14:15.588Z,12.10
2022-10-25T01:17:15.378Z,12.10
2022-10-25T01:20:23.208Z,12.10
2022-10-25T01:23:19.103Z,12.10
2022-10-25T01:26:00.565Z,12.10
2022-10-25T01:29:10.350Z,12.10
2022-10-25T01:31:55.139Z,12.04
2022-10-25T01:34:44.445Z,12.00
2022-10-25T01:38:08.914Z,12.00
2022-10-25T01:41:03.656Z,11.98
2022-10-25T01:43:55.232Z,11.90
2022-10-25T01:46:29.943Z,11.90
2022-10-25T01:49:09.242Z,11.90
2022-10-25T01:51:37.594Z,11.90
2022-10-25T01:54:18.666Z,11.90
2022-10-25T01:57:03.762Z,11.90
2022-10-25T02:00:10.649Z,11.90
2022-10-25T02:03:05.546Z,11.90
2022-10-25T02:06:30.159Z,11.90
2022-10-25T02:09:07.536Z,12.00
2022-10-25T02:11:34.607Z,12.00
2022-10-25T02:14:34.176Z,12.00
2022-10-25T02:17:10.916Z,12.00
2022-10-25T02:19:44.338Z,12.10
2022-10-25T02:22:13.814Z,12.10
2022-10-25T02:24:45.663Z,12.10
2022-10-25T02:27:13.930Z,12.10
2022-10-25T02:29:42.857Z,12.10
2022-10-25T02:32:09.484Z,12.14
2022-10-25T02:34:36.048Z,12.20
2022-10-25T02:37:02.707Z,12.20
2022-10-25T02:39:31.518Z,12.20
2022-10-25T02:42:02.481Z,12.30
2022-10-25T02:44:29.427Z,12.30
2022-10-25T02:46:56.082Z,12.30
2022-10-25T02:49:22.824Z,12.30
2022-10-25T02:51:49.375Z,12.30
2022-10-25T02:54:15.901Z,12.40
2022-10-25T02:56:42.504Z,12.40
2022-10-25T02:59:12.877Z,12.50
2022-10-25T03:01:39.471Z,12.50
2022-10-25T03:04:06.046Z,12.50
2022-10-25T03:06:32.633Z,12.60
2022-10-25T03:08:59.273Z,12.60
2022-10-25T03:11:25.944Z,12.60
2022-10-25T03:13:52.548Z,12.60
2022-10-25T03:16:19.044Z,12.60
2022-10-25T03:18:45.643Z,12.60
2022-10-25T03:21:12.343Z,12.70
2022-10-25T03:23:38.876Z,12.70
2022-10-25T03:26:05.798Z,12.70
2022-10-25T03:28:32.616Z,12.70
2022-10-25T03:31:00.452Z,12.70
2022-10-25T03:33:27.832Z,12.70
2022-10-25T03:35:55.419Z,12.80
2022-10-25T03:38:23.071Z,12.80
2022-10-25T03:40:49.882Z,12.80
2022-10-25T03:43:16.491Z,12.80
2022-10-25T03:45:43.448Z,12.80
2022-10-25T03:48:10.253Z,12.78
2022-10-25T03:50:36.810Z,12.80
2022-10-25T03:53:05.182Z,12.80
2022-10-25T03:55:33.193Z,12.80
2022-10-25T03:58:00.136Z,12.80
2022-10-25T04:00:27.415Z,12.80
2022-10-25T04:03:02.103Z,12.82
2022-10-25T04:05:31.326Z,12.88
2022-10-25T04:07:58.802Z,12.90
2022-10-25T04:10:26.607Z,12.90
2022-10-25T04:12:54.606Z,12.90
2022-10-25T04:15:23.645Z,12.90
2022-10-25T04:17:52.734Z,12.90
2022-10-25T04:20:19.923Z,12.86
2022-10-25T04:22:56.796Z,12.80
2022-10-25T04:25:28.467Z,12.80
2022-10-25T04:27:55.392Z,12.80
2022-10-25T04:30:21.989Z,12.80
2022-10-25T04:32:49.107Z,12.80
2022-10-25T04:35:16.259Z,12.70
2022-10-25T04:37:42.909Z,12.70
2022-10-25T04:40:10.807Z,12.70
2022-10-25T04:42:37.442Z,12.60
2022-10-25T04:45:04.280Z,12.60
2022-10-25T04:47:32.472Z,12.60
2022-10-25T04:49:59.114Z,12.52
2022-10-25T04:52:26.049Z,12.50
2022-10-25T04:54:52.730Z,12.50
2022-10-25T04:57:19.285Z,12.50
2022-10-25T04:59:45.864Z,12.46
2022-10-25T05:02:12.582Z,12.40
2022-10-25T05:04:39.136Z,12.40
2022-10-25T05:07:05.904Z,12.40
2022-10-25T05:09:32.443Z,12.40
2022-10-25T05:11:59.122Z,12.40
2022-10-25T05:14:25.717Z,12.30
2022-10-25T05:16:52.354Z,12.30
2022-10-25T05:19:18.873Z,12.30
2022-10-25T05:21:45.465Z,12.30
2022-10-25T05:24:12.001Z,12.30
2022-10-25T05:26:38.666Z,12.30
2022-10-25T05:29:09.988Z,12.30
2022-10-25T05:31:38.607Z,12.30
2022-10-25T05:34:05.280Z,12.30
2022-10-25T05:36:33.487Z,12.30
2022-10-25T05:39:01.061Z,12.30
2022-10-25T05:41:30.659Z,12.30
2022-10-25T05:44:00.091Z,12.38
2022-10-25T05:46:26.961Z,12.40
2022-10-25T05:48:54.042Z,12.40
2022-10-25T05:51:34.776Z,12.50
2022-10-25T05:54:14.694Z,12.50
2022-10-25T05:56:43.350Z,12.60
2022-10-25T05:59:14.821Z,12.60
2022-10-25T06:01:46.975Z,12.60
2022-10-25T06:04:15.319Z,12.70
2022-10-25T06:06:45.601Z,12.70
2022-10-25T06:09:13.681Z,12.70
2022-10-25T06:11:40.930Z,12.74
2022-10-25T06:14:10.063Z,12.80
2022-10-25T06:16:37.966Z,12.80
2022-10-25T06:19:04.471Z,12.80
2022-10-25T06:21:31.078Z,12.90
2022-10-25T06:23:59.202Z,12.90
2022-10-25T06:26:29.588Z,12.90
2022-10-25T06:29:03.967Z,13.00
2022-10-25T06:31:32.228Z,13.00
2022-10-25T06:34:00.749Z,13.00
2022-10-25T06:36:27.900Z,13.10
2022-10-25T06:38:54.648Z,13.10
2022-10-25T06:41:24.891Z,13.10
2022-10-25T06:43:52.097Z,13.10
2022-10-25T06:46:33.029Z,13.10
2022-10-25T06:49:01.937Z,13.10
2022-10-25T06:51:29.509Z,13.10
2022-10-25T06:54:01.508Z,13.10
2022-10-25T06:56:29.171Z,13.10
2022-10-25T06:58:55.986Z,13.10
2022-10-25T07:01:24.783Z,13.10
2022-10-25T07:03:54.102Z,13.20
2022-10-25T07:06:35.778Z,13.20
2022-10-25T07:09:05.066Z,13.20
2022-10-25T07:11:33.068Z,13.30
2022-10-25T07:14:01.617Z,13.30
2022-10-25T07:16:29.181Z,13.30
2022-10-25T07:19:03.979Z,13.40
2022-10-25T07:21:33.156Z,13.40
2022-10-25T07:23:59.914Z,13.48
2022-10-25T07:26:33.567Z,13.50
2022-10-25T07:29:02.158Z,13.56
2022-10-25T07:31:35.615Z,13.60
2022-10-25T07:34:04.788Z,13.70
2022-10-25T07:36:31.606Z,13.70
2022-10-25T07:38:58.420Z,13.80
2022-10-25T07:41:25.638Z,13.90
2022-10-25T07:43:52.238Z,14.08
2022-10-25T07:46:18.806Z,14.20
2022-10-25T07:48:45.365Z,14.30
2022-10-25T07:51:15.428Z,14.40
2022-10-25T07:53:42.791Z,14.60
2022-10-25T07:56:22.251Z,14.70
2022-10-25T08:01:53.252Z,15.00
2022-10-25T08:04:19.858Z,15.10
2022-10-25T08:06:46.506Z,15.20
2022-10-25T08:09:15.191Z,15.30
2022-10-25T08:11:47.139Z,15.44
2022-10-25T08:14:13.774Z,15.60
2022-10-25T08:16:40.381Z,15.80
2022-10-25T08:19:07.069Z,15.96
2022-10-25T08:21:33.630Z,16.10
2022-10-25T08:24:00.226Z,16.20
2022-10-25T08:26:30.175Z,16.30
2022-10-25T08:28:58.457Z,16.40
2022-10-25T08:31:25.124Z,16.50
2022-10-25T08:33:51.674Z,16.70
2022-10-25T08:36:18.252Z,16.72
2022-10-25T08:38:47.043Z,16.80
2022-10-25T08:41:34.137Z,16.90
2022-10-25T08:44:15.331Z,16.90
2022-10-25T08:46:55.588Z,16.90
2022-10-25T08:49:32.207Z,16.90
2022-10-25T08:52:01.058Z,17.00
2022-10-25T08:54:35.109Z,17.00
2022-10-25T08:57:24.176Z,17.00
2022-10-25T08:59:57.279Z,17.24
2022-10-25T09:02:37.122Z,18.10
2022-10-25T09:05:12.757Z,19.16
2022-10-25T09:07:55.488Z,20.24
2022-10-25T09:11:15.662Z,21.44
2022-10-25T09:14:18.370Z,22.90
2022-10-25T09:16:57.080Z,23.94
2022-10-25T09:20:00.238Z,24.84
2022-10-25T09:22:31.098Z,25.76
2022-10-25T09:25:12.792Z,26.40
2022-10-25T09:27:54.905Z,26.92
2022-10-25T09:30:21.732Z,27.44
2022-10-25T09:33:01.284Z,27.80
2022-10-25T09:35:31.801Z,28.32
2022-10-25T09:38:16.176Z,28.90
2022-10-25T09:41:04.519Z,29.10
2022-10-25T09:43:40.745Z,29.76
2022-10-25T09:46:16.182Z,30.10
2022-10-25T09:49:17.867Z,30.52
2022-10-25T09:52:20.142Z,31.00
2022-10-25T09:54:54.179Z,31.10
2022-10-25T09:57:20.855Z,30.80
2022-10-25T09:59:50.824Z,31.00
2022-10-25T10:02:27.858Z,31.00
2022-10-25T10:04:54.655Z,30.50
2022-10-25T10:07:34.133Z,30.88
2022-10-25T10:10:05.874Z,31.20
2022-10-25T10:12:43.581Z,31.40
2022-10-25T10:15:24.267Z,31.54
2022-10-25T10:18:26.784Z,31.64
2022-10-25T10:21:10.799Z,31.80
2022-10-25T10:23:49.639Z,31.12
2022-10-25T10:26:38.591Z,30.54
2022-10-25T10:29:20.059Z,29.74
2022-10-25T10:31:51.091Z,29.12
2022-10-25T10:34:27.971Z,28.76
2022-10-25T10:37:21.801Z,27.94
2022-10-25T10:40:12.878Z,27.02
2022-10-25T10:42:43.263Z,26.20
2022-10-25T10:45:19.300Z,26.00
2022-10-25T10:47:57.055Z,25.30
2022-10-25T10:50:28.698Z,24.74
2022-10-25T10:53:03.786Z,24.50
2022-10-25T10:55:43.877Z,24.00
2022-10-25T10:58:34.194Z,23.70
2022-10-25T11:01:10.831Z,23.48
2022-10-25T11:03:45.163Z,23.20
2022-10-25T11:06:35.305Z,23.00
2022-10-25T11:09:12.870Z,23.00
2022-10-25T11:11:40.608Z,22.90
2022-10-25T11:14:19.764Z,22.80
2022-10-25T11:17:23.336Z,22.70
2022-10-25T11:20:28.240Z,22.50
2022-10-25T11:23:09.190Z,22.34
2022-10-25T11:25:44.573Z,22.20
2022-10-25T11:28:55.830Z,22.00
2022-10-25T11:32:01.932Z,22.00
2022-10-25T11:34:59.331Z,22.00
2022-10-25T11:37:39.642Z,21.94
2022-10-25T11:40:18.760Z,21.70
2022-10-25T11:43:31.769Z,21.80
2022-10-25T11:46:32.611Z,21.90
2022-10-25T11:49:12.767Z,22.00
2022-10-25T11:51:59.074Z,22.02
2022-10-25T11:54:34.747Z,22.20
2022-10-25T11:57:31.963Z,22.30
2022-10-25T12:00:12.463Z,22.40
2022-10-25T12:03:26.302Z,22.22
2022-10-25T12:06:17.495Z,22.10
2022-10-25T12:08:57.594Z,21.90
2022-10-25T12:11:32.396Z,21.78
2022-10-25T12:14:05.291Z,21.80
2022-10-25T12:16:34.276Z,21.80
2022-10-25T12:19:26.011Z,21.80
2022-10-25T12:22:02.201Z,21.80
2022-10-25T12:24:49.580Z,21.60
2022-10-25T12:27:20.343Z,21.40
2022-10-25T12:29:54.413Z,21.30
2022-10-25T12:32:29.187Z,21.40
2022-10-25T12:35:00.841Z,21.32
2022-10-25T12:37:38.140Z,21.38
2022-10-25T12:40:07.999Z,21.30
2022-10-25T12:42:45.756Z,21.30
2022-10-25T12:45:51.066Z,21.40
2022-10-25T12:48:44.264Z,21.50
2022-10-25T12:51:48.169Z,21.50
2022-10-25T12:55:06.494Z,21.50
2022-10-25T12:58:08.900Z,21.60
2022-10-25T13:00:46.697Z,21.60
2022-10-25T13:03:59.191Z,21.70
2022-10-25T13:06:30.077Z,21.70
2022-10-25T13:09:07.192Z,21.80
2022-10-25T13:11:38.548Z,21.76
2022-10-25T13:14:32.125Z,21.80
2022-10-25T13:17:17.804Z,21.80
2022-10-25T13:19:54.453Z,21.70
2022-10-25T13:22:39.918Z,21.70
2022-10-25T13:25:12.366Z,21.62
2022-10-25T13:28:15.239Z,21.56
2022-10-25T13:30:43.460Z,21.46
2022-10-25T13:33:21.397Z,21.30
2022-10-25T13:35:51.210Z,21.10
2022-10-25T13:38:29.430Z,20.80
2022-10-25T13:41:13.588Z,20.60
2022-10-25T13:44:20.078Z,20.50
2022-10-25T13:46:48.205Z,20.50
2022-10-25T13:49:50.248Z,20.60
2022-10-25T13:52:27.328Z,20.60
2022-10-25T13:54:57.087Z,20.64
2022-10-25T13:57:56.317Z,20.70
2022-10-25T14:00:47.930Z,20.70
2022-10-25T14:03:17.831Z,20.60
2022-10-25T14:05:56.962Z,20.60
2022-10-25T14:08:57.840Z,20.60
2022-10-25T14:11:37.722Z,20.50
2022-10-25T14:14:22.440Z,20.40
2022-10-25T14:17:16.474Z,20.32
2022-10-25T14:19:51.742Z,20.34
2022-10-25T14:22:36.235Z,20.30
2022-10-25T14:25:14.994Z,20.10
2022-10-25T14:27:41.603Z,20.10
2022-10-25T14:30:30.169Z,20.10
2022-10-25T14:33:04.079Z,20.10
2022-10-25T14:35:47.372Z,20.10
2022-10-25T14:38:23.824Z,19.94
2022-10-25T14:40:55.838Z,19.90
2022-10-25T14:43:37.633Z,19.80
2022-10-25T14:46:10.432Z,19.70
2022-10-25T14:48:37.168Z,19.60
2022-10-25T14:51:08.168Z,19.60
2022-10-25T14:53:37.455Z,19.50
2022-10-25T14:56:05.829Z,19.40
2022-10-25T14:58:42.851Z,19.40
2022-10-25T15:01:12.377Z,19.30
2022-10-25T15:03:42.665Z,19.20
2022-10-25T15:06:09.754Z,19.10
2022-10-25T15:08:40.101Z,19.10
2022-10-25T15:11:15.285Z,19.10
2022-10-25T15:13:45.728Z,19.00
2022-10-25T15:16:29.111Z,18.90
2022-10-25T15:19:09.407Z,18.86
2022-10-25T15:21:43.255Z,18.80
2022-10-25T15:24:21.344Z,18.70
2022-10-25T15:26:53.527Z,18.60
2022-10-25T15:29:49.537Z,18.60
2022-10-25T15:32:27.535Z,18.60
2022-10-25T15:34:58.931Z,18.50
2022-10-25T15:37:27.761Z,18.50
2022-10-25T15:39:56.631Z,18.40
2022-10-25T15:42:26.179Z,18.40
2022-10-25T15:44:52.859Z,18.30
2022-10-25T15:47:37.288Z,18.28
2022-10-25T15:50:14.353Z,18.20
2022-10-25T15:52:41.422Z,18.10
2022-10-25T15:55:24.204Z,18.10
2022-10-25T15:57:51.612Z,18.10
2022-10-25T16:00:25.705Z,18.00
2022-10-25T16:02:54.885Z,18.00
2022-10-25T16:05:43.591Z,18.00
2022-10-25T16:08:16.971Z,17.90
2022-10-25T16:10:44.688Z,17.90
2022-10-25T16:13:26.267Z,17.80
2022-10-25T16:15:53.483Z,17.70
2022-10-25T16:18:20.189Z,17.70
2022-10-25T16:20:46.863Z,17.66
2022-10-25T16:23:13.764Z,17.60
2022-10-25T16:25:40.966Z,17.54
2022-10-25T16:28:14.544Z,17.50
2022-10-25T16:30:43.128Z,17.46
2022-10-25T16:33:11.233Z,17.40
2022-10-25T16:35:38.627Z,17.40
2022-10-25T16:40:48.735Z,17.30
2022-10-25T16:43:19.823Z,17.20
2022-10-25T16:45:46.436Z,17.16
2022-10-25T16:48:13.823Z,17.10
2022-10-25T16:50:41.237Z,17.08
2022-10-25T16:53:09.232Z,17.00
2022-10-25T16:55:35.925Z,17.00
2022-10-25T16:58:03.037Z,16.90
2022-10-25T17:00:36.092Z,16.90
2022-10-25T17:03:07.655Z,16.84
2022-10-25T17:05:40.207Z,16.80
2022-10-25T17:08:09.962Z,16.80
2022-10-25T17:10:43.717Z,16.70
2022-10-25T17:13:17.315Z,16.70
2022-10-25T17:15:44.522Z,16.66
2022-10-25T17:18:15.282Z,16.60
2022-10-25T17:20:42.703Z,16.60
2022-10-25T17:23:09.707Z,16.60
2022-10-25T17:25:37.262Z,16.58
2022-10-25T17:28:04.728Z,16.50
2022-10-25T17:30:31.308Z,16.50
2022-10-25T17:32:58.976Z,16.50
2022-10-25T17:35:29.632Z,16.40
2022-10-25T17:37:57.396Z,16.40
2022-10-25T17:40:24.692Z,16.40
2022-10-25T17:42:52.188Z,16.36
2022-10-25T17:45:21.156Z,16.30
2022-10-25T17:47:47.985Z,16.30
2022-10-25T17:50:20.055Z,16.30
2022-10-25T17:52:46.765Z,16.20
2022-10-25T17:55:13.589Z,16.20
2022-10-25T17:57:40.155Z,16.10
2022-10-25T18:00:07.971Z,16.10
2022-10-25T18:02:41.670Z,16.00
2022-10-25T18:05:19.806Z,16.00
2022-10-25T18:07:48.304Z,15.90
2022-10-25T18:10:16.514Z,15.90
2022-10-25T18:12:43.059Z,15.88
2022-10-25T18:15:10.426Z,15.80
2022-10-25T18:17:37.004Z,15.80
2022-10-25T18:20:03.946Z,15.80
2022-10-25T18:22:30.725Z,15.78
2022-10-25T18:24:57.698Z,15.70
2022-10-25T18:27:27.499Z,15.70
2022-10-25T18:29:54.150Z,15.60
2022-10-25T18:32:30.940Z,15.60
2022-10-25T18:35:00.733Z,15.60
2022-10-25T18:37:27.354Z,15.50
2022-10-25T18:39:54.934Z,15.50
2022-10-25T18:42:21.693Z,15.50
2022-10-25T18:44:48.327Z,15.40
2022-10-25T18:47:15.348Z,15.40
2022-10-25T18:49:41.993Z,15.38
2022-10-25T18:52:09.139Z,15.30
2022-10-25T18:54:35.914Z,15.28
2022-10-25T18:57:02.438Z,15.20
2022-10-25T18:59:29.015Z,15.10
2022-10-25T19:01:55.648Z,15.10
2022-10-25T19:04:22.736Z,15.00
2022-10-25T19:06:49.342Z,15.00
2022-10-25T19:09:16.020Z,14.90
2022-10-25T19:11:42.645Z,14.90
2022-10-25T19:14:09.453Z,14.80
2022-10-25T19:16:37.577Z,14.80
2022-10-25T19:19:07.187Z,14.78
2022-10-25T19:21:35.463Z,14.70
2022-10-25T19:24:02.023Z,14.64
2022-10-25T19:26:28.703Z,14.60
2022-10-25T19:28:58.581Z,14.60
2022-10-25T19:31:27.390Z,14.54
2022-10-25T19:33:56.273Z,14.50
2022-10-25T19:36:22.861Z,14.50
2022-10-25T19:38:49.536Z,14.48
2022-10-25T19:41:20.255Z,14.40
2022-10-25T19:43:47.497Z,14.40
2022-10-25T19:46:14.649Z,14.30
2022-10-25T19:48:41.949Z,14.30
2022-10-25T19:51:12.267Z,14.20
2022-10-25T19:53:39.103Z,14.20
2022-10-25T19:56:18.306Z,14.20
2022-10-25T19:58:45.549Z,14.20
2022-10-25T20:01:24.885Z,14.20
2022-10-25T20:04:00.741Z,14.20
2022-10-25T20:06:30.976Z,14.20
2022-10-25T20:09:00.255Z,14.20
2022-10-25T20:11:28.734Z,14.10
2022-10-25T20:13:57.338Z,14.10
2022-10-25T20:16:25.693Z,14.10
2022-10-25T20:18:52.792Z,14.00
2022-10-25T20:21:23.705Z,13.90
2022-10-25T20:23:56.508Z,13.90
2022-10-25T20:26:30.320Z,13.90
2022-10-25T20:29:00.301Z,13.90
2022-10-25T20:31:30.295Z,13.90
2022-10-25T20:33:57.591Z,13.90
2022-10-25T20:36:25.773Z,13.90
2022-10-25T20:38:52.469Z,13.90
2022-10-25T20:41:23.608Z,13.80
2022-10-25T20:43:58.343Z,13.80
2022-10-25T20:46:25.883Z,13.80
2022-10-25T20:48:52.974Z,13.70
2022-10-25T20:51:20.065Z,13.70
2022-10-25T20:53:48.687Z,13.70
2022-10-25T20:56:19.962Z,13.64
2022-10-25T20:58:46.714Z,13.60
2022-10-25T21:01:13.610Z,13.60
2022-10-25T21:03:40.374Z,13.58
2022-10-25T21:06:10.661Z,13.50
2022-10-25T21:08:37.997Z,13.50
2022-10-25T21:11:09.454Z,13.50
2022-10-25T21:13:37.228Z,13.40
2022-10-25T21:16:08.969Z,13.40
2022-10-25T21:18:37.163Z,13.40
2022-10-25T21:21:08.051Z,13.34
2022-10-25T21:23:35.349Z,13.30
2022-10-25T21:26:06.021Z,13.30
2022-10-25T21:28:36.192Z,13.30
2022-10-25T21:31:05.320Z,13.30
2022-10-25T21:33:31.891Z,13.30
2022-10-25T21:36:07.122Z,13.20
2022-10-25T21:38:33.798Z,13.20
2022-10-25T21:41:08.540Z,13.20
2022-10-25T21:43:36.786Z,13.20
2022-10-25T21:46:07.314Z,13.10
2022-10-25T21:48:34.915Z,13.10
2022-10-25T21:51:01.721Z,13.10
2022-10-25T21:53:28.446Z,13.10
2022-10-25T21:56:18.827Z,13.08
2022-10-25T21:58:48.850Z,13.00
2022-10-25T22:01:19.163Z,12.90
2022-10-25T22:03:45.861Z,12.90
2022-10-25T22:06:15.856Z,12.90
2022-10-25T22:08:43.390Z,12.90
2022-10-25T22:11:18.278Z,12.86
2022-10-25T22:13:46.097Z,12.80
2022-10-25T22:16:18.842Z,12.80
2022-10-25T22:18:52.401Z,12.80
2022-10-25T22:21:20.569Z,12.78
2022-10-25T22:23:48.113Z,12.70
2022-10-25T22:26:18.555Z,12.70
2022-10-25T22:28:45.509Z,12.70
2022-10-25T22:31:15.929Z,12.66
2022-10-25T22:33:43.727Z,12.60
2022-10-25T22:36:17.080Z,12.60
2022-10-25T22:38:45.168Z,12.56
2022-10-25T22:41:24.660Z,12.50
2022-10-25T22:43:52.233Z,12.50
2022-10-25T22:46:34.722Z,12.50
2022-10-25T22:49:07.050Z,12.50
2022-10-25T22:51:34.060Z,12.50
2022-10-25T22:54:00.735Z,12.50
2022-10-25T22:56:30.332Z,12.56
2022-10-25T22:59:00.443Z,12.56
2022-10-25T23:01:30.474Z,12.60
2022-10-25T23:03:59.218Z,12.60
2022-10-25T23:06:29.164Z,12.50
2022-10-25T23:08:58.976Z,12.50
2022-10-25T23:11:31.967Z,12.54
2022-10-25T23:13:59.684Z,12.58
2022-10-25T23:16:28.006Z,12.60
2022-10-25T23:18:55.430Z,12.60
2022-10-25T23:21:24.853Z,12.60
2022-10-25T23:23:54.154Z,12.60
2022-10-25T23:26:27.316Z,12.62
2022-10-25T23:28:55.648Z,12.70
2022-10-25T23:31:23.330Z,12.70
2022-10-25T23:33:53.230Z,12.70
2022-10-25T23:36:23.191Z,12.70
2022-10-25T23:38:51.496Z,12.70
2022-10-25T23:41:20.132Z,12.70
2022-10-25T23:43:47.234Z,12.64
2022-10-25T23:46:14.310Z,12.60
2022-10-25T23:48:40.904Z,12.50
2022-10-25T23:51:15.480Z,12.50
2022-10-25T23:53:42.841Z,12.50
2022-10-25T23:56:12.505Z,12.60
2022-10-25T23:58:39.790Z,12.60
